Share

Alanreed, TX

WT_Meso Pampa 2E (MPAMT2) Elev 3215 ft | 35.54 °N, 100.93 °W | Change Station

Current weather conditions updated 44 minutes ago

Overcast
Overcast
57 °F
Feels Like 57 °F
N
9
Wind Variable Wind from SSE
Gusts 12.0 mph
Sunrise 7:02 AM
Sunset 8:20 PM
Moon Waning Gibbous

Today is forecast to be nearly the same temperature as yesterday.

Pressure 29.99 in
Visibility 2.5 miles
Clouds Overcast 200 ft
Dew Point 56 °F
Humidity 100%
Rainfall -999.00 in
Snow Depth Not available.
UV 0 out of 16
Pollen 8.00 out of 12
Air Quality Not available.
Flu Activity Local Activity
METAR KPPA 210755Z AUTO 19008KT 2 1/2SM BR OVC002 13/13 A2999 RMK AO2 T01310125

More Conditions Fewer Conditions

Pressure 29.99 in
Visibility 2.5 miles
Clouds Overcast 200 ft
Dew Point 56 °F
Humidity 100%
Rainfall -999.00 in
Snow Depth Not available.
UV 0 out of 16
Pollen 8.00 out of 12
Air Quality Not available.
Flu Activity Local Activity
METAR KPPA 210755Z AUTO 19008KT 2 1/2SM BR OVC002 13/13 A2999 RMK AO2 T01310125

More Conditions Fewer Conditions

10-Day Weather Forecast

Almanac

Astronomy

Apr. 21, 2014 Rise Set
Actual Time 7:02 AM CDT 8:20 PM CDT
Civil Twilight 6:36 AM CDT 8:47 PM CDT
Nautical Twilight 6:04 AM CDT 9:19 PM CDT
Astronomical Twilight 5:31 AM CDT 9:52 PM CDT
Moon 1:49 AM CDT 12:34 PM CDT
Length of Visible Light 14h 11m
Length of Day
13h 18m
Tomorrow will be 2m 3s longer.
Waning Gibbous, 61% of the Moon is Illuminated
Today
Waning Gibbous
Apr 22
Last Quarter
Apr 29
New
May 6
First Quarter
May 14
Full

Today's Extremes

State Highs State Lows

Community

  • Snowy Robin
    Snowy Robin
  • Sun Pillar and Geese
    Sun Pillar and Geese
  • Showers on the Way
    Showers on the Way
  • Easter Morning Fog
    Easter Morning Fog
  • Easter Dance
    Easter Dance

WunderPhotos

Upload Photos

1,703,572 photos uploaded!

WunderBlogs® & News

Nearby

Snow Depth

Station Depth Elevation
No new snow has been reported.

Coastal Water Temperatures

Place Temperature
No Stations Reporting

Earthquake Activity

City Distance Mag. Time & Date
No recent earthquake activity has been reported nearby.
Minimum magnitude displayed is 2.5.

Nearby Weather Stations

Station Location Temp. Dew Point Humidity Wind Precip. Elev Updated Type
HADS LEFORS WEATHER STATION TX, Lefors, TX 58 °F 53 °F 82% SSE  at  1 mph 0.00 in / hr 2798 ft 2:00 AM CDT MADIS
WT_Meso Pampa 2E, Pampa, TX 57 °F 56 °F 100% SSE  at  9 mph 0.00 in / hr 3215 ft 2:25 AM CDT MADIS
WT_Meso McLean 1E, McLean, TX 58 °F 56 °F 99% SSE  at  7 mph 0.00 in / hr 2862 ft 2:25 AM CDT MADIS

Show More Stations Show Fewer Stations

What do you think?

We're not finished. Please let us know what you like, what you don't like, and what you are still missing.